Creek Data

    Home     View Charts     View Raw Data     Messages

ID Distance Battery Voltage Battery Current Internal Temp Internal Humidity External Temp Solar Input rssi snr Time Stamp Record
33749 14.8 4.09 69 46 37 51 4.5 -79 7 03/01/2025 08:00 AM 15449
33748 15.0 3.94 -7 45 37 47 4.5 -79 8 03/01/2025 07:45 AM 15448
33747 15.0 3.97 8 45 37 46 4.5 -79 8 03/01/2025 07:30 AM 15447
33746 15.0 3.96 0 44 37 46 4.5 -80 8 03/01/2025 07:15 AM 15446
33745 15.0 3.90 0 44 37 46 4.5 -80 7 03/01/2025 07:00 AM 15445
33744 14.9 3.94 -6 44 37 46 4.5 -80 8 03/01/2025 06:45 AM 15444
33743 14.9 3.89 -5 44 37 45 1.2 -78 7 03/01/2025 06:30 AM 15443
33742 14.9 3.89 -5 44 37 46 0.1 -77 7 03/01/2025 06:15 AM 15442
33741 15.0 3.89 -5 44 37 46 0 -77 8 03/01/2025 06:00 AM 15441
33740 15.0 3.95 -5 44 36 46 0.1 -77 9 03/01/2025 05:45 AM 15440
33739 14.9 3.89 -5 42 37 46 0 -77 8 03/01/2025 05:30 AM 15439
33738 14.9 3.89 -5 39 38 43 0 -77 8 03/01/2025 05:15 AM 15438
33737 14.9 3.95 -5 40 38 42 0 -77 8 03/01/2025 05:00 AM 15437
33736 14.9 3.89 -5 40 38 43 0 -78 9 03/01/2025 04:45 AM 15436
33735 15.0 3.89 -5 40 38 43 0 -77 8 03/01/2025 04:30 AM 15435
33734 15.0 3.89 -5 40 38 43 0 -76 8 03/01/2025 04:15 AM 15434
33733 14.9 3.95 -5 42 38 42 0 -76 8 03/01/2025 04:00 AM 15433
33732 14.9 3.90 -5 44 38 46 0 -76 8 03/01/2025 03:30 AM 15431
33731 14.9 3.90 -5 42 38 47 0 -76 8 03/01/2025 03:15 AM 15430
33730 15.0 3.90 -5 43 38 46 0 -76 9 03/01/2025 03:00 AM 15429
33729 14.9 3.90 -5 43 38 46 0 -76 8 03/01/2025 02:45 AM 15428
33728 14.9 3.96 -5 44 38 47 0 -77 8 03/01/2025 02:30 AM 15427
33727 14.9 3.90 -5 44 38 46 0 -76 8 03/01/2025 02:15 AM 15426
33726 15.0 3.90 -5 43 38 47 0 -77 8 03/01/2025 02:00 AM 15425
33725 14.8 3.90 -5 43 38 47 0.1 -77 7 03/01/2025 01:45 AM 15424